createdAt,value
2023-05-21T00:02:19.881Z,15.41
2023-05-21T00:04:47.480Z,15.43
2023-05-21T00:07:15.251Z,15.40
2023-05-21T00:09:41.760Z,15.36
2023-05-21T00:12:09.236Z,15.35
2023-05-21T00:14:36.601Z,15.35
2023-05-21T00:17:03.185Z,15.39
2023-05-21T00:19:29.859Z,15.36
2023-05-21T00:21:57.993Z,15.35
2023-05-21T00:24:24.410Z,15.35
2023-05-21T00:26:50.957Z,15.32
2023-05-21T00:29:17.364Z,15.29
2023-05-21T00:31:43.803Z,15.26
2023-05-21T00:34:10.383Z,15.26
2023-05-21T00:36:36.821Z,15.24
2023-05-21T00:39:04.588Z,15.20
2023-05-21T00:41:31.226Z,15.29
2023-05-21T00:44:00.267Z,15.26
2023-05-21T00:46:29.002Z,15.24
2023-05-21T00:48:58.041Z,15.22
2023-05-21T00:51:25.838Z,15.17
2023-05-21T00:53:52.966Z,15.11
2023-05-21T00:56:22.708Z,15.14
2023-05-21T00:58:51.804Z,15.16
2023-05-21T01:01:19.555Z,15.08
2023-05-21T01:03:48.626Z,15.11
2023-05-21T01:06:16.015Z,15.06
2023-05-21T01:08:42.547Z,15.05
2023-05-21T01:11:09.974Z,15.06
2023-05-21T01:13:39.439Z,15.03
2023-05-21T01:16:06.744Z,15.04
2023-05-21T01:18:37.744Z,15.04
2023-05-21T01:21:05.310Z,15.03
2023-05-21T01:23:32.143Z,15.02
2023-05-21T01:25:58.548Z,15.03
2023-05-21T01:28:25.090Z,15.06
2023-05-21T01:30:52.002Z,15.06
2023-05-21T01:33:24.007Z,15.03
2023-05-21T01:35:58.439Z,15.01
2023-05-21T01:38:37.625Z,14.96
2023-05-21T01:41:09.017Z,14.95
2023-05-21T01:43:39.188Z,14.95
2023-05-21T01:46:10.022Z,14.97
2023-05-21T01:48:37.495Z,14.98
2023-05-21T01:51:05.594Z,14.87
2023-05-21T01:53:32.423Z,14.84
2023-05-21T01:55:59.287Z,14.80
2023-05-21T01:58:25.788Z,14.80
2023-05-21T02:00:52.316Z,14.84
2023-05-21T02:03:20.084Z,14.85
2023-05-21T02:05:47.225Z,14.83
2023-05-21T02:08:15.105Z,14.83
2023-05-21T02:10:41.584Z,14.81
2023-05-21T02:13:08.028Z,14.81
2023-05-21T02:15:35.098Z,14.82
2023-05-21T02:18:02.009Z,14.76
2023-05-21T02:20:28.478Z,14.75
2023-05-21T02:22:54.996Z,14.76
2023-05-21T02:25:21.470Z,14.69
2023-05-21T02:27:48.322Z,14.72
2023-05-21T02:30:16.256Z,14.69
2023-05-21T02:32:43.533Z,14.67
2023-05-21T02:35:12.382Z,14.68
2023-05-21T02:37:44.180Z,14.72
2023-05-21T02:40:11.888Z,14.72
2023-05-21T02:42:40.193Z,14.74
2023-05-21T02:45:11.626Z,14.77
2023-05-21T02:47:39.042Z,14.69
2023-05-21T02:50:07.407Z,14.67
2023-05-21T02:52:33.824Z,14.65
2023-05-21T02:55:00.314Z,14.68
2023-05-21T02:57:26.733Z,14.64
2023-05-21T02:59:53.161Z,14.67
2023-05-21T03:02:19.661Z,14.66
2023-05-21T03:04:46.501Z,14.62
2023-05-21T03:07:21.117Z,14.57
2023-05-21T03:09:47.475Z,14.50
2023-05-21T03:12:13.907Z,14.51
2023-05-21T03:14:42.515Z,14.56
2023-05-21T03:17:08.933Z,14.57
2023-05-21T03:19:36.405Z,14.54
2023-05-21T03:22:06.079Z,14.56
2023-05-21T03:24:33.082Z,14.60
2023-05-21T03:27:01.430Z,14.54
2023-05-21T03:29:29.134Z,14.56
2023-05-21T03:31:55.810Z,14.48
2023-05-21T03:34:22.420Z,14.52
2023-05-21T03:36:49.502Z,14.59
2023-05-21T03:39:16.179Z,14.59
2023-05-21T03:41:43.248Z,14.59
2023-05-21T03:44:09.901Z,14.57
2023-05-21T03:46:36.395Z,14.55
2023-05-21T03:49:02.917Z,14.57
2023-05-21T03:51:31.532Z,14.54
2023-05-21T03:53:59.116Z,14.53
2023-05-21T03:56:26.366Z,14.54
2023-05-21T03:58:53.031Z,14.54
2023-05-21T04:01:19.776Z,14.56
2023-05-21T04:03:46.535Z,14.49
2023-05-21T04:06:13.600Z,14.50
2023-05-21T04:08:39.982Z,14.43
2023-05-21T04:11:06.637Z,14.43
2023-05-21T04:13:33.039Z,14.42
2023-05-21T04:15:59.708Z,14.42
2023-05-21T04:18:26.823Z,14.47
2023-05-21T04:20:53.747Z,14.48
2023-05-21T04:23:20.245Z,14.50
2023-05-21T04:25:50.895Z,14.50
2023-05-21T04:28:21.002Z,14.48
2023-05-21T04:30:48.115Z,14.45
2023-05-21T04:33:18.425Z,14.50
2023-05-21T04:35:49.834Z,14.42
2023-05-21T04:38:19.566Z,14.48
2023-05-21T04:40:52.562Z,14.52
2023-05-21T04:43:25.720Z,14.43
2023-05-21T04:45:54.661Z,14.50
2023-05-21T04:48:27.181Z,14.53
2023-05-21T04:50:54.018Z,14.55
2023-05-21T04:53:20.725Z,14.57
2023-05-21T04:55:47.252Z,14.60
2023-05-21T04:58:13.818Z,14.62
2023-05-21T05:00:42.120Z,14.65
2023-05-21T05:03:08.773Z,14.65
2023-05-21T05:05:35.538Z,14.64
2023-05-21T05:08:02.489Z,14.65
2023-05-21T05:10:29.064Z,14.72
2023-05-21T05:12:55.434Z,14.77
2023-05-21T05:15:21.912Z,14.79
2023-05-21T05:17:50.457Z,14.72
2023-05-21T05:20:17.021Z,14.79
2023-05-21T05:22:43.391Z,14.78
2023-05-21T05:25:09.886Z,14.79
2023-05-21T05:27:38.380Z,14.81
2023-05-21T05:30:05.589Z,14.85
2023-05-21T05:32:32.258Z,14.95
2023-05-21T05:35:00.402Z,15.00
2023-05-21T05:37:27.914Z,15.04
2023-05-21T05:39:55.191Z,15.04
2023-05-21T05:42:21.665Z,15.05
2023-05-21T05:44:48.187Z,15.13
2023-05-21T05:47:14.595Z,15.17
2023-05-21T05:49:41.150Z,15.16
2023-05-21T05:52:07.548Z,15.20
2023-05-21T05:54:33.976Z,15.22
2023-05-21T05:57:00.853Z,15.24
2023-05-21T05:59:27.272Z,15.25
2023-05-21T06:01:53.673Z,15.29
2023-05-21T06:04:20.131Z,15.29
2023-05-21T06:06:47.352Z,15.34
2023-05-21T06:09:13.953Z,15.38
2023-05-21T06:11:40.570Z,15.41
2023-05-21T06:14:07.029Z,15.46
2023-05-21T06:16:33.900Z,15.48
2023-05-21T06:19:00.541Z,15.54
2023-05-21T06:21:27.014Z,15.63
2023-05-21T06:23:53.446Z,15.64
2023-05-21T06:26:20.032Z,15.67
2023-05-21T06:28:46.409Z,15.77
2023-05-21T06:31:13.550Z,15.78
2023-05-21T06:33:40.168Z,15.83
2023-05-21T06:36:06.623Z,15.86
2023-05-21T06:38:33.123Z,15.79
2023-05-21T06:40:59.603Z,15.91
2023-05-21T06:43:26.172Z,15.95
2023-05-21T06:45:52.588Z,16.03
2023-05-21T06:48:19.056Z,16.09
2023-05-21T06:50:45.390Z,16.17
2023-05-21T06:53:11.779Z,16.23
2023-05-21T06:55:38.445Z,16.33
2023-05-21T06:58:05.003Z,16.37
2023-05-21T07:00:31.488Z,16.31
2023-05-21T07:02:57.999Z,16.52
2023-05-21T07:05:24.523Z,16.65
2023-05-21T07:07:50.951Z,16.73
2023-05-21T07:10:17.492Z,16.85
2023-05-21T07:12:43.951Z,16.88
2023-05-21T07:15:10.831Z,16.96
2023-05-21T07:17:37.702Z,17.00
2023-05-21T07:20:11.473Z,17.06
2023-05-21T07:22:39.240Z,17.10
2023-05-21T07:25:06.535Z,17.14
2023-05-21T07:27:32.923Z,17.18
2023-05-21T07:29:59.441Z,17.33
2023-05-21T07:32:26.794Z,17.45
2023-05-21T07:34:54.442Z,17.52
2023-05-21T07:37:22.210Z,17.71
2023-05-21T07:39:48.661Z,17.77
2023-05-21T07:42:15.061Z,17.87
2023-05-21T07:44:41.443Z,17.92
2023-05-21T07:47:07.848Z,18.04
2023-05-21T07:49:34.331Z,18.04
2023-05-21T07:52:00.742Z,18.17
2023-05-21T07:54:27.148Z,18.17
2023-05-21T07:56:53.585Z,18.21
2023-05-21T07:59:20.012Z,18.20
2023-05-21T08:01:46.363Z,18.26
2023-05-21T08:04:12.960Z,18.28
2023-05-21T08:06:39.554Z,18.26
2023-05-21T08:09:06.697Z,18.31
2023-05-21T08:11:33.300Z,18.32
2023-05-21T08:14:00.046Z,18.31
2023-05-21T08:16:26.691Z,18.33
2023-05-21T08:18:53.441Z,18.26
2023-05-21T08:21:19.933Z,18.23
2023-05-21T08:23:46.356Z,18.19
2023-05-21T08:26:12.967Z,18.13
2023-05-21T08:28:39.462Z,18.11
2023-05-21T08:31:06.135Z,18.15
2023-05-21T08:33:37.138Z,18.31
2023-05-21T08:36:05.476Z,18.35
2023-05-21T08:38:32.052Z,18.49
2023-05-21T08:40:59.670Z,18.61
2023-05-21T08:43:29.171Z,18.74
2023-05-21T08:45:59.295Z,18.79
2023-05-21T08:48:26.289Z,18.95
2023-05-21T08:50:54.273Z,19.15
2023-05-21T08:53:27.982Z,19.21
2023-05-21T08:55:57.090Z,19.33
2023-05-21T08:58:23.798Z,19.37
2023-05-21T09:00:50.686Z,19.45
2023-05-21T09:03:17.368Z,19.44
2023-05-21T09:05:45.126Z,19.49
2023-05-21T09:08:41.024Z,19.57
2023-05-21T09:11:07.478Z,19.58
2023-05-21T09:13:36.263Z,19.73
2023-05-21T09:16:04.809Z,19.83
2023-05-21T09:18:31.363Z,19.86
2023-05-21T09:20:59.475Z,19.91
2023-05-21T09:23:28.782Z,20.09
2023-05-21T09:25:55.129Z,20.18
2023-05-21T09:28:21.611Z,20.35
2023-05-21T09:30:49.639Z,20.41
2023-05-21T09:33:26.546Z,20.57
2023-05-21T09:35:53.064Z,20.77
2023-05-21T09:38:22.217Z,20.83
2023-05-21T09:40:48.679Z,21.01
2023-05-21T09:43:16.247Z,21.04
2023-05-21T09:45:53.527Z,21.19
2023-05-21T09:48:40.816Z,21.37
2023-05-21T09:51:16.902Z,21.59
2023-05-21T09:54:00.055Z,21.79
2023-05-21T09:56:31.908Z,21.98
2023-05-21T09:59:01.354Z,22.13
2023-05-21T10:01:28.682Z,22.11
2023-05-21T10:03:59.910Z,22.10
2023-05-21T10:06:28.771Z,22.15
2023-05-21T10:08:57.424Z,22.25
2023-05-21T10:11:26.937Z,22.22
2023-05-21T10:14:07.612Z,22.24
2023-05-21T10:16:35.788Z,22.31
2023-05-21T10:19:02.856Z,22.16
2023-05-21T10:21:31.096Z,22.08
2023-05-21T10:23:57.573Z,22.14
2023-05-21T10:26:24.812Z,22.24
2023-05-21T10:28:52.166Z,22.30
2023-05-21T10:31:18.850Z,22.32
2023-05-21T10:33:45.246Z,22.40
2023-05-21T10:36:11.866Z,22.46
2023-05-21T10:38:39.310Z,22.57
2023-05-21T10:41:07.311Z,22.62
2023-05-21T10:44:11.054Z,22.65
2023-05-21T10:46:53.894Z,22.63
2023-05-21T10:49:43.898Z,22.64
2023-05-21T10:52:28.983Z,22.62
2023-05-21T10:55:02.077Z,22.40
2023-05-21T10:57:56.267Z,22.37
2023-05-21T11:00:25.778Z,22.45
2023-05-21T11:02:53.126Z,22.51
2023-05-21T11:05:52.084Z,22.49
2023-05-21T11:08:22.875Z,22.54
2023-05-21T11:10:58.272Z,22.50
2023-05-21T11:13:31.466Z,22.51
2023-05-21T11:15:57.848Z,22.55
2023-05-21T11:18:47.101Z,22.54
2023-05-21T11:21:17.875Z,22.61
2023-05-21T11:23:54.311Z,22.70
2023-05-21T11:26:22.503Z,22.82
2023-05-21T11:29:04.310Z,23.00
2023-05-21T11:31:38.745Z,23.03
2023-05-21T11:34:11.313Z,22.95
2023-05-21T11:36:38.827Z,22.96
2023-05-21T11:39:11.689Z,23.12
2023-05-21T11:41:58.104Z,23.30
2023-05-21T11:44:44.754Z,23.46
2023-05-21T11:47:13.034Z,23.44
2023-05-21T11:49:39.468Z,23.51
2023-05-21T11:52:07.977Z,23.66
2023-05-21T11:54:43.964Z,23.61
2023-05-21T11:57:10.886Z,23.71
2023-05-21T11:59:37.314Z,23.85
2023-05-21T12:02:04.808Z,23.98
2023-05-21T12:04:38.675Z,24.02
2023-05-21T12:07:07.305Z,24.03
2023-05-21T12:09:40.465Z,24.01
2023-05-21T12:12:09.168Z,23.91
2023-05-21T12:14:36.959Z,23.99
2023-05-21T12:17:04.885Z,23.82
2023-05-21T12:19:35.617Z,23.87
2023-05-21T12:22:12.153Z,23.82
2023-05-21T12:24:39.190Z,23.81
2023-05-21T12:27:09.611Z,23.85
2023-05-21T12:29:38.392Z,23.90
2023-05-21T12:32:08.840Z,23.92
2023-05-21T12:34:50.323Z,23.93
2023-05-21T12:37:22.867Z,23.97
2023-05-21T12:39:51.509Z,23.99
2023-05-21T12:42:31.540Z,24.05
2023-05-21T12:44:58.577Z,24.14
2023-05-21T12:47:27.536Z,24.18
2023-05-21T12:49:57.956Z,24.18
2023-05-21T12:52:25.568Z,24.24
2023-05-21T12:54:53.973Z,24.33
2023-05-21T12:57:40.634Z,24.41
2023-05-21T13:00:07.892Z,24.39
2023-05-21T13:02:39.745Z,24.42
2023-05-21T13:05:08.583Z,24.53
2023-05-21T13:07:38.023Z,24.56
2023-05-21T13:10:06.099Z,24.63
2023-05-21T13:12:33.571Z,24.73
2023-05-21T13:15:01.931Z,24.83
2023-05-21T13:17:29.025Z,24.82
2023-05-21T13:20:21.316Z,24.81
2023-05-21T13:22:50.764Z,24.86
2023-05-21T13:25:22.833Z,24.82
2023-05-21T13:27:50.565Z,24.85
2023-05-21T13:30:17.892Z,24.76
2023-05-21T13:32:45.168Z,24.69
2023-05-21T13:35:12.313Z,24.76
2023-05-21T13:37:40.470Z,24.76
2023-05-21T13:40:11.501Z,24.81
2023-05-21T13:42:40.498Z,24.91
2023-05-21T13:45:08.279Z,25.00
2023-05-21T13:47:36.240Z,25.09
2023-05-21T13:50:05.230Z,25.19
2023-05-21T13:52:31.668Z,25.24
2023-05-21T13:54:58.118Z,25.26
2023-05-21T13:57:27.430Z,25.35
2023-05-21T13:59:53.921Z,25.43
2023-05-21T14:02:20.431Z,25.45
2023-05-21T14:04:46.984Z,25.52
2023-05-21T14:07:13.415Z,25.50
2023-05-21T14:09:39.933Z,25.55
2023-05-21T14:12:07.532Z,25.60
2023-05-21T14:14:34.080Z,25.50
2023-05-21T14:17:00.667Z,25.44
2023-05-21T14:19:27.394Z,25.48
2023-05-21T14:21:54.012Z,25.58
2023-05-21T14:24:20.547Z,25.52
2023-05-21T14:26:47.030Z,25.55
2023-05-21T14:29:14.172Z,25.60
2023-05-21T14:31:40.687Z,25.65
2023-05-21T14:34:08.737Z,25.71
2023-05-21T14:36:36.184Z,25.81
2023-05-21T14:39:02.649Z,25.82
2023-05-21T14:41:29.518Z,25.82
2023-05-21T14:43:55.978Z,25.81
2023-05-21T14:46:22.662Z,25.78
2023-05-21T14:48:49.340Z,25.72
2023-05-21T14:51:15.972Z,25.81
2023-05-21T14:53:42.342Z,25.61
2023-05-21T14:56:08.987Z,25.53
2023-05-21T14:58:35.607Z,25.63
2023-05-21T15:01:03.952Z,25.77
2023-05-21T15:03:30.693Z,25.75
2023-05-21T15:05:58.389Z,25.72
2023-05-21T15:08:24.821Z,25.70
2023-05-21T15:10:51.307Z,25.73
2023-05-21T15:13:17.739Z,25.68
2023-05-21T15:15:44.625Z,25.73
2023-05-21T15:18:11.577Z,25.81
2023-05-21T15:20:38.085Z,25.87
2023-05-21T15:23:16.121Z,25.95
2023-05-21T15:25:43.582Z,25.90
2023-05-21T15:28:11.693Z,25.97
2023-05-21T15:30:38.155Z,26.06
2023-05-21T15:33:04.717Z,26.21
2023-05-21T15:35:31.297Z,26.29
2023-05-21T15:37:57.859Z,26.23
2023-05-21T15:40:26.769Z,26.25
2023-05-21T15:42:53.612Z,26.22
2023-05-21T15:45:20.192Z,26.25
2023-05-21T15:47:46.784Z,26.16
2023-05-21T15:50:13.285Z,26.02
2023-05-21T15:52:42.190Z,26.00
2023-05-21T15:55:09.176Z,25.89
2023-05-21T15:57:35.696Z,25.87
2023-05-21T16:00:02.144Z,25.76
2023-05-21T16:02:28.859Z,25.78
2023-05-21T16:04:55.584Z,25.76
2023-05-21T16:07:23.475Z,25.61
2023-05-21T16:09:49.996Z,25.60
2023-05-21T16:12:16.468Z,25.52
2023-05-21T16:14:42.932Z,25.46
2023-05-21T16:17:09.613Z,25.50
2023-05-21T16:19:36.123Z,25.40
2023-05-21T16:22:02.575Z,25.34
2023-05-21T16:24:29.119Z,25.31
2023-05-21T16:26:55.672Z,25.25
2023-05-21T16:29:22.269Z,25.20
2023-05-21T16:31:48.950Z,25.18
2023-05-21T16:34:15.724Z,25.24
2023-05-21T16:36:42.219Z,25.23
2023-05-21T16:39:08.635Z,25.16
2023-05-21T16:41:35.084Z,25.12
2023-05-21T16:44:01.556Z,25.11
2023-05-21T16:46:28.693Z,25.08
2023-05-21T16:48:55.147Z,25.03
2023-05-21T16:51:21.536Z,24.98
2023-05-21T16:53:48.173Z,24.94
2023-05-21T16:56:14.701Z,24.85
2023-05-21T16:58:41.210Z,24.79
2023-05-21T17:01:07.827Z,24.69
2023-05-21T17:03:34.375Z,24.67
2023-05-21T17:06:00.928Z,24.68
2023-05-21T17:08:27.390Z,24.63
2023-05-21T17:10:54.641Z,24.60
2023-05-21T17:13:22.990Z,24.57
2023-05-21T17:15:51.200Z,24.54
2023-05-21T17:18:17.813Z,24.49
2023-05-21T17:20:44.752Z,24.47
2023-05-21T17:23:11.776Z,24.46
2023-05-21T17:25:38.655Z,24.38
2023-05-21T17:28:05.406Z,23.92
2023-05-21T17:30:32.115Z,23.77
2023-05-21T17:32:58.583Z,23.71
2023-05-21T17:35:25.112Z,23.58
2023-05-21T17:37:53.295Z,23.52
2023-05-21T17:40:21.316Z,23.47
2023-05-21T17:42:47.876Z,23.47
2023-05-21T17:45:14.382Z,23.44
2023-05-21T17:47:40.901Z,23.47
2023-05-21T17:50:08.112Z,23.40
2023-05-21T17:52:34.613Z,23.39
2023-05-21T17:55:01.538Z,23.39
2023-05-21T17:57:27.986Z,23.36
2023-05-21T17:59:55.279Z,23.27
2023-05-21T18:02:23.346Z,23.29
2023-05-21T18:04:49.895Z,23.28
2023-05-21T18:07:16.540Z,23.26
2023-05-21T18:09:42.931Z,23.17
2023-05-21T18:12:09.454Z,23.12
2023-05-21T18:14:35.940Z,23.14
2023-05-21T18:17:02.484Z,23.12
2023-05-21T18:19:30.265Z,23.11
2023-05-21T18:21:56.830Z,23.08
2023-05-21T18:24:23.294Z,22.95
2023-05-21T18:26:49.861Z,22.90
2023-05-21T18:29:16.320Z,22.87
2023-05-21T18:31:45.977Z,22.82
2023-05-21T18:34:12.598Z,22.77
2023-05-21T18:36:40.040Z,22.68
2023-05-21T18:39:09.986Z,22.63
2023-05-21T18:41:37.142Z,22.52
2023-05-21T18:44:05.721Z,22.51
2023-05-21T18:46:32.151Z,22.47
2023-05-21T18:49:00.468Z,22.48
2023-05-21T18:51:27.006Z,22.47
2023-05-21T18:53:53.384Z,22.40
2023-05-21T18:56:19.817Z,22.36
2023-05-21T18:58:47.634Z,22.30
2023-05-21T19:01:14.335Z,22.24
2023-05-21T19:03:40.962Z,22.21
2023-05-21T19:06:08.369Z,22.21
2023-05-21T19:08:34.861Z,22.14
2023-05-21T19:11:01.260Z,22.13
2023-05-21T19:13:27.827Z,22.06
2023-05-21T19:15:54.371Z,22.01
2023-05-21T19:18:20.822Z,22.00
2023-05-21T19:20:47.279Z,22.03
2023-05-21T19:23:13.800Z,22.05
2023-05-21T19:25:40.408Z,21.97
2023-05-21T19:28:06.974Z,21.84
2023-05-21T19:30:36.271Z,21.73
2023-05-21T19:33:03.523Z,21.73
2023-05-21T19:35:30.350Z,21.72
2023-05-21T19:38:00.172Z,21.65
2023-05-21T19:40:27.616Z,21.78
2023-05-21T19:42:54.086Z,21.73
2023-05-21T19:45:21.524Z,21.71
2023-05-21T19:47:48.417Z,21.64
2023-05-21T19:50:15.049Z,21.62
2023-05-21T19:52:41.516Z,21.63
2023-05-21T19:55:10.193Z,21.57
2023-05-21T19:57:37.244Z,21.48
2023-05-21T20:00:05.318Z,21.46
2023-05-21T20:02:32.018Z,21.49
2023-05-21T20:04:59.019Z,21.46
2023-05-21T20:07:25.452Z,21.50
2023-05-21T20:09:52.439Z,21.53
2023-05-21T20:12:19.250Z,21.55
2023-05-21T20:14:47.443Z,21.56
2023-05-21T20:17:14.309Z,21.50
2023-05-21T20:19:40.977Z,21.47
2023-05-21T20:22:07.412Z,21.41
2023-05-21T20:24:33.817Z,21.38
2023-05-21T20:27:01.857Z,21.33
2023-05-21T20:29:28.963Z,21.30
2023-05-21T20:31:55.467Z,21.32
2023-05-21T20:34:21.990Z,21.33
2023-05-21T20:36:48.575Z,21.31
2023-05-21T20:39:15.592Z,21.34
2023-05-21T20:41:44.858Z,21.37
2023-05-21T20:44:11.758Z,21.35
2023-05-21T20:46:41.163Z,21.31
2023-05-21T20:49:07.750Z,21.34
2023-05-21T20:51:34.154Z,21.36
2023-05-21T20:54:00.661Z,21.34
2023-05-21T20:56:40.720Z,21.32
2023-05-21T20:59:10.824Z,21.31
2023-05-21T21:01:38.438Z,21.30
2023-05-21T21:04:05.224Z,21.25
2023-05-21T21:06:31.879Z,21.24
2023-05-21T21:08:58.588Z,21.21
2023-05-21T21:11:25.151Z,21.12
2023-05-21T21:13:51.805Z,21.04
2023-05-21T21:16:18.634Z,21.02
2023-05-21T21:18:46.765Z,21.05
2023-05-21T21:21:13.836Z,21.02
2023-05-21T21:23:40.452Z,20.90
2023-05-21T21:26:07.139Z,20.80
2023-05-21T21:28:33.670Z,20.74
2023-05-21T21:31:00.323Z,20.73
2023-05-21T21:33:26.995Z,20.71
2023-05-21T21:35:53.534Z,20.68
2023-05-21T21:38:20.044Z,20.70
2023-05-21T21:40:46.465Z,20.69
2023-05-21T21:43:12.833Z,20.70
2023-05-21T21:45:39.347Z,20.62
2023-05-21T21:48:06.453Z,20.61
2023-05-21T21:50:32.880Z,20.56
2023-05-21T21:52:59.992Z,20.58
2023-05-21T21:55:26.485Z,20.58
2023-05-21T21:57:52.941Z,20.56
2023-05-21T22:00:19.693Z,20.62
2023-05-21T22:02:48.762Z,20.59
2023-05-21T22:05:15.201Z,20.62
2023-05-21T22:07:46.346Z,20.60
2023-05-21T22:10:14.809Z,20.58
2023-05-21T22:12:41.422Z,20.59
2023-05-21T22:15:09.030Z,20.61
2023-05-21T22:17:35.445Z,20.61
2023-05-21T22:20:01.884Z,20.59
2023-05-21T22:22:28.433Z,20.57
2023-05-21T22:24:54.975Z,20.53
2023-05-21T22:27:21.488Z,20.55
2023-05-21T22:29:48.018Z,20.50
2023-05-21T22:32:14.464Z,20.47
2023-05-21T22:34:41.906Z,20.47
2023-05-21T22:37:08.401Z,20.46
2023-05-21T22:39:34.851Z,20.39
2023-05-21T22:42:01.468Z,20.40
2023-05-21T22:44:27.935Z,20.31
2023-05-21T22:46:56.218Z,20.29
2023-05-21T22:49:22.794Z,20.28
2023-05-21T22:51:49.610Z,20.28
2023-05-21T22:54:16.035Z,20.25
2023-05-21T22:56:42.470Z,20.10
2023-05-21T22:59:08.922Z,20.07
2023-05-21T23:01:36.776Z,20.06
2023-05-21T23:04:03.786Z,20.05
2023-05-21T23:06:30.675Z,20.04
2023-05-21T23:08:57.084Z,20.00
2023-05-21T23:11:23.556Z,19.96
2023-05-21T23:13:49.984Z,19.90
2023-05-21T23:16:16.866Z,19.90
2023-05-21T23:18:43.374Z,19.86
2023-05-21T23:21:09.924Z,19.80
2023-05-21T23:23:36.457Z,19.80
2023-05-21T23:26:02.879Z,19.76
2023-05-21T23:28:29.399Z,19.73
2023-05-21T23:30:55.883Z,19.66
2023-05-21T23:33:22.291Z,19.61
2023-05-21T23:35:48.823Z,19.53
2023-05-21T23:38:15.306Z,19.53
2023-05-21T23:40:41.977Z,19.60
2023-05-21T23:43:08.436Z,19.59
2023-05-21T23:45:34.859Z,19.55
2023-05-21T23:48:01.318Z,19.51
2023-05-21T23:50:27.920Z,19.50
2023-05-21T23:52:54.338Z,19.44
2023-05-21T23:55:20.793Z,19.42
2023-05-21T23:57:47.221Z,19.37
